Time;durP1;ratioP1;P1;durP2;ratioP2;P2;SDS_P1;SDS_P2;PMS_P1;PMS_P2;Temp;Humidity;BMP_temperature;BMP_pressure;BME280_temperature;BME280_humidity;BME280_pressure;Samples;Min_cycle;Max_cycle;Signal;HPM_P1;HPM_P2
2022/01/30 00:00:24;;;;;;;1.10;0.90;;;6.30;99.90;;;;;;5109523;28;20203;-46
2022/01/30 00:02:51;;;;;;;0.90;0.70;;;6.30;99.90;;;;;;5114995;28;20172;-45
2022/01/30 00:05:17;;;;;;;1.50;1.00;;;6.40;99.90;;;;;;5110752;28;20469;-45
2022/01/30 00:07:44;;;;;;;1.10;0.80;;;6.40;99.90;;;;;;5116878;28;20491;-46
2022/01/30 00:10:13;;;;;;;1.03;0.67;;;6.40;99.90;;;;;;5099315;28;20433;-46
2022/01/30 00:12:52;;;;;;;1.27;0.80;;;6.40;99.90;;;;;;5094574;28;20488;-44
2022/01/30 00:15:23;;;;;;;1.67;0.90;;;6.50;99.90;;;;;;5112088;28;20450;-45
2022/01/30 00:18:07;;;;;;;1.50;0.80;;;6.50;99.90;;;;;;5115962;28;20508;-44
2022/01/30 00:20:38;;;;;;;1.00;0.70;;;6.50;99.90;;;;;;5100620;28;20449;-44
2022/01/30 00:23:15;;;;;;;0.90;0.70;;;6.50;99.90;;;;;;5097867;28;20433;-44
2022/01/30 00:25:49;;;;;;;2.00;1.07;;;6.50;99.90;;;;;;5116036;28;20887;-44
2022/01/30 00:28:17;;;;;;;3.20;0.70;;;6.50;99.90;;;;;;5115949;28;20486;-44
2022/01/30 00:30:43;;;;;;;1.60;1.33;;;6.60;99.90;;;;;;5093848;28;20484;-44
2022/01/30 00:33:08;;;;;;;1.27;1.00;;;6.60;99.90;;;;;;5114485;28;20456;-46
2022/01/30 00:35:36;;;;;;;1.03;0.87;;;6.60;99.90;;;;;;5111807;28;20196;-46
2022/01/30 00:38:04;;;;;;;1.30;0.90;;;6.60;99.90;;;;;;5117172;28;20183;-45
2022/01/30 00:40:30;;;;;;;1.60;0.90;;;6.60;99.90;;;;;;5117051;28;20433;-46
2022/01/30 00:42:55;;;;;;;1.40;1.00;;;6.60;99.90;;;;;;5117337;28;20409;-46
2022/01/30 00:45:21;;;;;;;1.40;1.10;;;6.60;99.90;;;;;;5117299;28;20469;-46
2022/01/30 00:47:47;;;;;;;1.57;1.00;;;6.60;99.90;;;;;;5118105;28;20175;-43
2022/01/30 00:50:13;;;;;;;2.57;1.20;;;6.60;99.90;;;;;;5117655;28;20421;-44
2022/01/30 00:52:39;;;;;;;1.27;0.93;;;6.70;99.90;;;;;;5117915;28;20672;-44
2022/01/30 00:55:05;;;;;;;1.30;0.90;;;6.60;99.90;;;;;;5117924;28;20178;-44
2022/01/30 00:57:30;;;;;;;2.73;1.17;;;6.60;99.90;;;;;;5117728;28;20418;-46
2022/01/30 00:59:56;;;;;;;1.20;1.10;;;6.70;99.90;;;;;;5099520;28;20551;-44
2022/01/30 01:02:22;;;;;;;1.20;0.90;;;6.70;99.90;;;;;;5116504;28;20180;-44
2022/01/30 01:04:49;;;;;;;1.30;1.20;;;6.70;99.90;;;;;;5116628;28;20199;-44
2022/01/30 01:07:21;;;;;;;1.80;0.80;;;6.70;99.90;;;;;;5116802;28;20260;-45
2022/01/30 01:10:04;;;;;;;1.20;0.90;;;6.70;99.90;;;;;;5099834;28;20715;-45
2022/01/30 01:23:43;;;;;;;1.57;1.40;;;6.70;99.90;;;;;;5036828;28;20425;-44
2022/01/30 01:26:09;;;;;;;1.03;0.90;;;6.80;99.90;;;;;;5037482;28;20469;-44
2022/01/30 01:28:35;;;;;;;1.40;1.03;;;6.80;99.90;;;;;;5079546;28;20718;-45
2022/01/30 01:31:01;;;;;;;1.50;1.10;;;6.80;99.90;;;;;;5119977;28;20456;-44
2022/01/30 01:33:35;;;;;;;0.90;0.80;;;6.70;99.90;;;;;;5101407;28;20183;-44
2022/01/30 01:36:00;;;;;;;1.30;1.10;;;6.70;99.90;;;;;;5119475;28;20182;-45
2022/01/30 01:38:26;;;;;;;1.13;0.90;;;6.80;99.90;;;;;;5119638;28;20426;-45
2022/01/30 01:40:54;;;;;;;1.10;1.00;;;6.80;99.90;;;;;;5120100;28;20180;-45
2022/01/30 01:43:21;;;;;;;1.47;1.37;;;6.80;99.90;;;;;;5119293;28;20285;-45
2022/01/30 01:45:49;;;;;;;1.60;1.27;;;6.80;99.90;;;;;;5119276;28;20465;-45
2022/01/30 01:48:15;;;;;;;1.47;1.20;;;6.80;99.90;;;;;;5119239;28;20452;-45
2022/01/30 01:50:45;;;;;;;1.33;1.07;;;6.80;99.80;;;;;;5101332;28;20530;-45
2022/01/30 01:53:13;;;;;;;2.80;1.20;;;6.80;99.80;;;;;;5101690;28;20775;-45
2022/01/30 01:55:41;;;;;;;1.60;1.40;;;6.90;99.80;;;;;;5119533;28;20886;-45
2022/01/30 01:58:08;;;;;;;1.17;1.00;;;6.80;99.70;;;;;;5101569;28;20429;-45
2022/01/30 02:00:35;;;;;;;1.27;1.03;;;6.80;99.80;;;;;;5102036;28;20408;-45
2022/01/30 02:03:02;;;;;;;1.37;0.80;;;6.80;99.80;;;;;;5120132;28;20421;-45
2022/01/30 02:05:29;;;;;;;1.93;1.00;;;7.30;99.90;;;;;;5118374;28;20467;-45
2022/01/30 02:10:39;;;;;;;2.93;1.07;;;8.70;99.90;;;;;;5118556;28;20537;-45
2022/01/30 02:13:40;;;;;;;2.90;1.17;;;8.60;99.90;;;;;;5118137;28;20851;-45
2022/01/30 02:24:11;;;;;;;1.20;1.07;;;7.80;99.10;;;;;;5104133;28;20432;-46
2022/01/30 02:26:41;;;;;;;2.03;1.10;;;7.60;98.90;;;;;;5119403;28;20426;-46
2022/01/30 02:29:07;;;;;;;1.47;1.30;;;7.50;99.10;;;;;;5102644;28;20439;-45
2022/01/30 02:31:36;;;;;;;1.27;1.03;;;7.30;99.20;;;;;;5119682;28;20397;-45
2022/01/30 02:34:01;;;;;;;1.40;1.13;;;7.20;99.40;;;;;;5119916;28;20270;-46
2022/01/30 02:36:27;;;;;;;1.70;1.30;;;7.20;99.60;;;;;;5119651;28;20500;-45
2022/01/30 02:38:57;;;;;;;1.37;1.20;;;7.10;99.60;;;;;;5119257;28;20188;-48
2022/01/30 02:41:22;;;;;;;1.27;1.00;;;7.00;99.70;;;;;;5119605;28;20399;-45
2022/01/30 02:44:03;;;;;;;1.43;1.30;;;7.00;99.90;;;;;;5119196;28;20445;-45
2022/01/30 02:46:33;;;;;;;1.40;1.30;;;6.90;99.90;;;;;;5103600;28;20465;-46
2022/01/30 02:49:11;;;;;;;1.47;1.07;;;6.90;99.90;;;;;;5119319;28;20429;-45
2022/01/30 02:51:46;;;;;;;1.60;1.40;;;6.90;99.90;;;;;;5119127;28;20413;-45
2022/01/30 02:54:13;;;;;;;1.37;1.23;;;6.90;99.90;;;;;;5119625;28;20789;-45
2022/01/30 02:56:40;;;;;;;1.60;0.97;;;6.80;99.90;;;;;;5119479;28;20413;-45
2022/01/30 02:59:06;;;;;;;2.03;1.57;;;6.80;99.90;;;;;;5119414;28;20425;-45
2022/01/30 03:01:32;;;;;;;1.90;1.20;;;6.80;99.90;;;;;;5118866;28;20651;-45
2022/01/30 03:03:57;;;;;;;1.50;1.05;;;6.80;99.90;;;;;;5118402;28;20421;-45
2022/01/30 03:06:23;;;;;;;1.30;0.80;;;6.70;99.90;;;;;;5118692;28;20240;-46
2022/01/30 03:08:49;;;;;;;1.20;0.97;;;6.70;99.90;;;;;;5117480;28;20198;-45
2022/01/30 03:11:14;;;;;;;1.33;1.10;;;6.70;99.90;;;;;;5117521;28;20231;-45
2022/01/30 03:13:40;;;;;;;1.10;0.90;;;6.70;99.90;;;;;;5117072;28;20333;-45
2022/01/30 03:16:06;;;;;;;1.30;0.80;;;6.70;99.90;;;;;;5117538;28;20530;-45
2022/01/30 03:18:31;;;;;;;1.13;0.90;;;6.70;99.90;;;;;;5116694;28;20184;-44
2022/01/30 03:20:57;;;;;;;1.33;0.93;;;6.70;99.90;;;;;;5117734;28;20180;-45
2022/01/30 03:23:23;;;;;;;1.30;0.83;;;6.70;99.90;;;;;;5117918;28;20195;-45
2022/01/30 03:25:54;;;;;;;1.33;1.07;;;6.70;99.90;;;;;;5100794;28;20826;-45
2022/01/30 03:28:20;;;;;;;1.10;0.90;;;6.70;99.90;;;;;;5118770;28;20509;-45
2022/01/30 03:30:47;;;;;;;1.17;1.00;;;6.70;99.90;;;;;;5118705;28;20410;-45
2022/01/30 03:33:13;;;;;;;1.50;1.20;;;6.70;99.90;;;;;;5118558;28;20180;-45
2022/01/30 03:35:40;;;;;;;3.30;1.47;;;6.60;99.90;;;;;;5100787;28;20820;-45
2022/01/30 03:38:05;;;;;;;1.40;1.23;;;6.60;99.90;;;;;;5116705;28;20468;-45
2022/01/30 03:40:31;;;;;;;1.93;1.03;;;6.60;99.90;;;;;;5117590;28;20434;-45
2022/01/30 03:42:57;;;;;;;2.17;1.30;;;6.60;99.90;;;;;;5117416;28;20190;-45
2022/01/30 03:45:22;;;;;;;3.70;1.30;;;6.60;99.90;;;;;;5117424;28;20584;-45
2022/01/30 03:47:51;;;;;;;1.27;1.03;;;6.60;99.90;;;;;;5099491;28;20182;-45
2022/01/30 03:50:16;;;;;;;1.90;1.30;;;6.60;99.90;;;;;;5117469;28;20479;-45
2022/01/30 03:52:42;;;;;;;1.60;1.43;;;6.60;99.90;;;;;;5117951;28;20519;-45
2022/01/30 03:55:08;;;;;;;1.37;1.07;;;6.60;99.90;;;;;;5118052;28;20574;-45
2022/01/30 03:57:33;;;;;;;1.60;1.20;;;6.60;99.90;;;;;;5117566;28;20578;-44
2022/01/30 03:59:59;;;;;;;1.50;1.33;;;6.60;99.90;;;;;;5117753;28;20466;-45
2022/01/30 04:02:25;;;;;;;1.37;1.10;;;6.60;99.90;;;;;;5118259;28;20194;-45
2022/01/30 04:04:50;;;;;;;1.40;1.20;;;6.70;99.90;;;;;;5118291;28;20207;-45
2022/01/30 04:07:17;;;;;;;1.60;1.23;;;6.70;99.90;;;;;;5117119;28;20589;-45
2022/01/30 04:09:43;;;;;;;1.30;0.90;;;6.60;99.90;;;;;;5098542;28;20188;-45
2022/01/30 04:12:09;;;;;;;1.30;1.00;;;6.60;99.90;;;;;;5116933;28;20834;-45
2022/01/30 04:14:35;;;;;;;1.57;1.33;;;6.60;99.90;;;;;;5116761;28;20455;-45
2022/01/30 04:17:01;;;;;;;1.70;1.30;;;6.60;99.90;;;;;;5117049;28;20418;-45
2022/01/30 04:19:26;;;;;;;2.00;1.73;;;6.60;99.90;;;;;;5117112;28;20421;-45
2022/01/30 04:21:52;;;;;;;3.50;1.70;;;6.70;99.90;;;;;;5116980;28;20569;-45
2022/01/30 04:24:18;;;;;;;2.00;1.80;;;6.60;99.90;;;;;;5117246;28;20290;-45
2022/01/30 04:26:44;;;;;;;4.90;2.10;;;6.60;99.90;;;;;;5117699;28;20237;-45
2022/01/30 04:29:10;;;;;;;2.50;2.10;;;6.70;99.90;;;;;;5117683;28;20259;-45
2022/01/30 04:31:36;;;;;;;4.03;2.23;;;6.70;99.90;;;;;;5117783;28;20544;-45
2022/01/30 04:34:02;;;;;;;9.03;2.70;;;6.70;99.90;;;;;;5099216;28;20565;-45
2022/01/30 04:36:33;;;;;;;4.20;2.90;;;6.70;99.90;;;;;;5117330;28;20429;-45
2022/01/30 04:52:47;;;;;;;5.57;3.50;;;6.70;99.90;;;;;;5120426;28;20718;-45
2022/01/30 05:06:07;;;;;;;9.23;3.77;;;6.80;99.90;;;;;;5121223;28;20563;-48
2022/01/30 05:08:23;;;;;;;6.70;3.70;;;6.80;99.80;;;;;;5119378;28;20739;-48
2022/01/30 05:10:49;;;;;;;8.17;4.30;;;6.80;99.70;;;;;;5121671;28;20475;-48
2022/01/30 05:13:19;;;;;;;14.30;6.00;;;6.80;99.60;;;;;;5121329;28;20436;-48
2022/01/30 05:15:45;;;;;;;16.17;8.53;;;6.80;99.50;;;;;;5121539;28;20184;-49
2022/01/30 05:18:17;;;;;;;14.17;7.77;;;6.80;99.30;;;;;;5121257;28;20845;-49
2022/01/30 05:20:43;;;;;;;13.67;7.03;;;6.80;99.10;;;;;;5103642;28;20425;-49
2022/01/30 05:23:09;;;;;;;9.17;5.07;;;6.80;99.30;;;;;;5121096;28;20445;-49
2022/01/30 05:25:35;;;;;;;8.20;4.50;;;6.80;98.80;;;;;;5121016;28;20824;-49
2022/01/30 05:28:02;;;;;;;6.77;3.60;;;6.80;98.70;;;;;;5120920;28;20431;-49
2022/01/30 05:30:28;;;;;;;11.97;3.70;;;6.80;98.70;;;;;;5120590;28;20437;-49
2022/01/30 05:32:53;;;;;;;7.77;3.23;;;6.80;98.70;;;;;;5121276;28;20410;-49
2022/01/30 05:35:19;;;;;;;10.10;3.83;;;6.80;98.70;;;;;;5121019;28;20426;-49
2022/01/30 05:37:45;;;;;;;4.70;2.87;;;6.80;98.60;;;;;;5121184;28;20425;-48
2022/01/30 05:40:11;;;;;;;5.10;3.23;;;6.70;98.50;;;;;;5103086;28;20452;-49
2022/01/30 05:42:38;;;;;;;6.93;3.47;;;6.70;98.50;;;;;;5120995;28;20418;-49
2022/01/30 05:45:52;;;;;;;4.83;2.80;;;6.70;98.30;;;;;;5120765;28;20733;-47
2022/01/30 05:48:01;;;;;;;6.70;2.87;;;6.70;98.20;;;;;;5109969;28;20422;-48
2022/01/30 05:50:27;;;;;;;7.33;2.50;;;6.60;98.10;;;;;;5120777;28;20429;-48
2022/01/30 05:52:53;;;;;;;7.47;3.47;;;6.60;98.10;;;;;;5120573;28;20424;-48
2022/01/30 05:55:20;;;;;;;6.33;3.90;;;6.60;98.00;;;;;;5120233;28;20529;-49
2022/01/30 05:57:47;;;;;;;9.17;3.10;;;6.60;97.80;;;;;;5120553;28;20180;-48
2022/01/30 06:00:14;;;;;;;6.23;3.27;;;6.60;97.70;;;;;;5119642;28;20464;-48
2022/01/30 06:02:44;;;;;;;8.13;3.60;;;6.60;97.60;;;;;;5120354;28;20486;-48
2022/01/30 06:05:10;;;;;;;7.80;3.13;;;6.60;97.40;;;;;;5120466;28;20472;-48
2022/01/30 06:07:46;;;;;;;13.93;3.50;;;6.60;97.10;;;;;;5119949;28;20421;-48
2022/01/30 06:10:12;;;;;;;7.03;3.47;;;6.60;96.90;;;;;;5119936;28;20425;-48
2022/01/30 06:12:37;;;;;;;8.43;3.30;;;6.60;96.90;;;;;;5119857;28;20421;-48
2022/01/30 06:15:03;;;;;;;11.73;3.30;;;6.60;97.00;;;;;;5101694;28;20433;-48
2022/01/30 06:17:29;;;;;;;8.13;3.30;;;6.60;96.70;;;;;;5120102;28;20532;-48
2022/01/30 06:19:54;;;;;;;9.53;3.60;;;6.60;96.70;;;;;;5119697;28;20497;-48
2022/01/30 06:22:20;;;;;;;6.37;3.00;;;6.60;95.80;;;;;;5120457;28;20424;-48
2022/01/30 06:24:46;;;;;;;7.67;3.50;;;6.60;95.30;;;;;;5120136;28;20557;-48
2022/01/30 06:27:11;;;;;;;10.47;3.90;;;6.60;95.20;;;;;;5119475;28;20181;-48
2022/01/30 06:29:37;;;;;;;7.30;3.40;;;6.50;94.90;;;;;;5119829;28;20187;-48
2022/01/30 06:32:03;;;;;;;7.20;3.57;;;6.50;94.80;;;;;;5120113;28;20468;-48
2022/01/30 06:34:28;;;;;;;8.90;3.87;;;6.50;94.80;;;;;;5119780;28;20624;-48
2022/01/30 06:36:55;;;;;;;8.93;3.80;;;6.50;94.60;;;;;;5119041;28;20465;-48
2022/01/30 06:39:21;;;;;;;7.90;3.53;;;6.50;94.60;;;;;;5118537;28;20176;-48
2022/01/30 06:41:47;;;;;;;9.60;3.90;;;6.50;94.60;;;;;;5117958;28;20973;-48
2022/01/30 06:44:12;;;;;;;9.30;3.33;;;6.50;94.50;;;;;;5118674;28;20180;-48
2022/01/30 06:46:38;;;;;;;9.10;3.50;;;6.50;94.40;;;;;;5100532;28;20825;-48
2022/01/30 06:49:04;;;;;;;7.57;3.10;;;6.40;94.40;;;;;;5117754;28;20169;-48
2022/01/30 06:51:30;;;;;;;9.33;4.17;;;6.50;94.50;;;;;;5118430;28;20173;-48
2022/01/30 06:53:55;;;;;;;7.90;3.17;;;6.50;94.30;;;;;;5119011;28;20402;-48
2022/01/30 06:56:21;;;;;;;6.67;3.23;;;6.50;94.20;;;;;;5119499;28;20184;-48
2022/01/30 06:58:47;;;;;;;8.40;3.30;;;6.50;94.20;;;;;;5101865;28;20207;-48
2022/01/30 07:01:12;;;;;;;9.43;3.73;;;6.40;94.10;;;;;;5119160;28;20201;-48
2022/01/30 07:03:38;;;;;;;5.83;3.30;;;6.50;93.90;;;;;;5119365;28;20199;-48
2022/01/30 07:06:04;;;;;;;9.13;3.87;;;6.50;94.00;;;;;;5119800;28;20226;-48
2022/01/30 07:08:29;;;;;;;9.50;4.10;;;6.50;94.00;;;;;;5118836;28;20202;-48
2022/01/30 07:10:55;;;;;;;11.43;4.30;;;6.50;93.90;;;;;;5100176;28;20258;-48
2022/01/30 07:13:20;;;;;;;9.23;4.07;;;6.50;93.70;;;;;;5119137;28;20503;-48
2022/01/30 07:15:46;;;;;;;8.67;4.27;;;6.40;93.80;;;;;;5118925;28;20204;-48
2022/01/30 07:18:12;;;;;;;15.50;4.30;;;6.40;93.90;;;;;;5118682;28;20172;-49
2022/01/30 07:20:37;;;;;;;11.43;4.40;;;6.40;94.00;;;;;;5118281;28;20183;-48
2022/01/30 07:23:03;;;;;;;11.07;4.30;;;6.40;94.10;;;;;;5118694;28;20168;-48
2022/01/30 07:25:29;;;;;;;11.40;4.40;;;6.40;94.10;;;;;;5119083;28;20202;-48
2022/01/30 07:27:54;;;;;;;10.90;4.57;;;6.40;93.90;;;;;;5118188;28;20213;-48
2022/01/30 07:30:20;;;;;;;10.83;4.70;;;6.50;94.00;;;;;;5118809;28;20172;-48
2022/01/30 07:32:45;;;;;;;13.43;4.80;;;6.50;93.90;;;;;;5118609;28;20192;-48
2022/01/30 07:35:11;;;;;;;10.60;4.20;;;6.50;93.90;;;;;;5119044;28;20187;-48
2022/01/30 07:37:37;;;;;;;8.70;3.60;;;6.50;93.80;;;;;;5100423;28;20497;-48
2022/01/30 07:40:04;;;;;;;14.10;4.73;;;6.50;93.90;;;;;;5118577;28;20179;-48
2022/01/30 07:42:29;;;;;;;12.03;4.00;;;6.50;93.90;;;;;;5118567;28;20545;-48
2022/01/30 07:44:55;;;;;;;7.00;4.17;;;6.60;93.90;;;;;;5117596;28;20548;-48
2022/01/30 07:47:22;;;;;;;12.13;4.63;;;6.60;93.90;;;;;;5117585;28;20241;-49
2022/01/30 07:49:51;;;;;;;12.03;4.33;;;6.60;93.90;;;;;;5098867;28;20236;-48
2022/01/30 07:52:21;;;;;;;10.27;5.07;;;6.60;93.90;;;;;;5117501;28;20472;-48
2022/01/30 07:54:47;;;;;;;7.37;4.10;;;6.70;93.80;;;;;;5116540;28;20426;-48
2022/01/30 07:57:14;;;;;;;13.30;5.00;;;6.80;93.80;;;;;;5116813;28;20425;-48
2022/01/30 07:59:43;;;;;;;10.93;4.87;;;6.80;93.60;;;;;;5117070;28;20482;-48
2022/01/30 08:02:09;;;;;;;11.43;6.43;;;7.00;93.50;;;;;;5117095;28;20433;-48
2022/01/30 08:04:35;;;;;;;7.33;3.90;;;7.10;93.10;;;;;;5099865;28;20485;-48
2022/01/30 08:07:01;;;;;;;9.80;4.13;;;7.20;92.80;;;;;;5117853;28;20466;-48
2022/01/30 08:09:27;;;;;;;10.60;4.40;;;7.30;92.40;;;;;;5116794;28;20546;-48
2022/01/30 08:11:53;;;;;;;7.20;4.57;;;7.30;92.30;;;;;;5116003;28;20480;-48
2022/01/30 08:14:18;;;;;;;7.60;4.07;;;7.40;92.20;;;;;;5116244;28;20714;-48
2022/01/30 08:16:44;;;;;;;10.73;4.50;;;7.50;91.90;;;;;;5094612;28;20268;-48
2022/01/30 08:19:09;;;;;;;9.80;4.83;;;7.60;91.90;;;;;;5109682;28;20176;-48
2022/01/30 08:21:35;;;;;;;8.77;4.00;;;7.70;91.80;;;;;;5116895;28;20180;-48
2022/01/30 08:24:01;;;;;;;11.30;4.87;;;7.80;91.70;;;;;;5120010;28;20180;-48
2022/01/30 08:26:26;;;;;;;7.87;4.57;;;8.20;91.90;;;;;;5121192;28;20226;-48
2022/01/30 08:28:52;;;;;;;11.03;4.10;;;8.70;91.50;;;;;;5120707;28;20179;-48
2022/01/30 08:31:18;;;;;;;8.83;4.00;;;9.30;90.10;;;;;;5120218;28;20521;-48
2022/01/30 08:33:43;;;;;;;9.83;3.80;;;10.00;87.00;;;;;;5120382;28;20498;-48
2022/01/30 08:36:09;;;;;;;8.33;3.30;;;10.50;83.10;;;;;;5120424;28;20185;-48
2022/01/30 08:38:34;;;;;;;5.70;3.77;;;10.50;81.00;;;;;;5120002;28;20474;-48
2022/01/30 08:41:00;;;;;;;6.27;3.57;;;10.80;80.40;;;;;;5118335;28;20539;-48
2022/01/30 08:43:26;;;;;;;8.70;3.57;;;11.60;80.80;;;;;;5119814;28;20257;-48
2022/01/30 08:45:52;;;;;;;10.00;4.10;;;12.20;77.40;;;;;;5120927;28;20210;-48
2022/01/30 08:48:19;;;;;;;6.00;3.30;;;13.00;72.00;;;;;;5121276;28;20246;-48
2022/01/30 08:50:45;;;;;;;10.23;3.37;;;14.00;69.90;;;;;;5120487;28;20699;-49
2022/01/30 08:53:11;;;;;;;9.43;3.27;;;15.20;64.90;;;;;;5120467;28;20427;-49
2022/01/30 08:55:37;;;;;;;8.40;2.70;;;16.30;59.10;;;;;;5120043;28;20481;-48
2022/01/30 08:58:09;;;;;;;8.30;2.50;;;17.50;56.40;;;;;;5120931;28;20265;-49
2022/01/30 09:00:36;;;;;;;6.40;2.83;;;18.40;53.40;;;;;;5120415;28;20175;-49
2022/01/30 09:03:04;;;;;;;6.40;3.20;;;19.10;50.60;;;;;;5120686;28;20428;-49
2022/01/30 09:05:30;;;;;;;8.00;4.10;;;20.10;48.30;;;;;;5121247;28;20472;-49
2022/01/30 09:07:57;;;;;;;7.30;3.47;;;20.60;45.50;;;;;;5121534;28;20530;-49
2022/01/30 09:10:23;;;;;;;6.43;3.30;;;20.90;43.50;;;;;;5121122;28;20457;-49
2022/01/30 09:12:48;;;;;;;7.33;4.00;;;21.50;42.60;;;;;;5121134;28;20415;-49
2022/01/30 09:15:16;;;;;;;7.80;3.10;;;22.40;41.00;;;;;;5119764;28;20204;-49
2022/01/30 09:17:43;;;;;;;6.10;3.37;;;22.90;40.40;;;;;;5120733;28;20255;-46
2022/01/30 09:20:09;;;;;;;5.83;2.70;;;23.40;39.50;;;;;;5121072;28;20451;-42
2022/01/30 09:22:35;;;;;;;7.77;3.00;;;24.00;38.70;;;;;;5103373;28;20420;-43
2022/01/30 09:25:01;;;;;;;6.93;3.67;;;24.70;37.30;;;;;;5120221;28;20477;-44
2022/01/30 09:27:27;;;;;;;5.13;2.87;;;25.00;36.80;;;;;;5120070;28;20425;-42
2022/01/30 09:29:53;;;;;;;6.40;3.50;;;25.60;35.60;;;;;;5119733;28;20182;-43
2022/01/30 09:32:18;;;;;;;6.23;2.80;;;26.20;33.60;;;;;;5120290;28;20216;-42
2022/01/30 09:34:44;;;;;;;9.00;3.33;;;26.20;33.00;;;;;;5120098;28;20240;-41
2022/01/30 09:37:10;;;;;;;5.43;2.90;;;26.00;32.70;;;;;;5120493;28;20180;-41
2022/01/30 09:39:36;;;;;;;7.67;3.40;;;26.20;32.40;;;;;;5120335;28;20225;-41
2022/01/30 09:42:03;;;;;;;6.50;2.90;;;26.50;33.10;;;;;;5119729;28;20410;-44
2022/01/30 09:44:30;;;;;;;6.23;3.10;;;27.10;32.00;;;;;;5119386;28;20531;-42
2022/01/30 09:46:55;;;;;;;5.33;3.27;;;27.00;32.10;;;;;;5119551;28;20428;-43
2022/01/30 09:49:25;;;;;;;8.67;3.60;;;27.90;31.30;;;;;;5100913;28;20882;-43
2022/01/30 09:51:53;;;;;;;5.20;2.90;;;27.10;31.20;;;;;;5119099;28;20596;-43
2022/01/30 09:54:19;;;;;;;7.07;3.40;;;25.80;31.70;;;;;;5118808;28;20406;-43
2022/01/30 09:56:45;;;;;;;6.57;3.07;;;24.20;31.80;;;;;;5120078;28;20439;-43
2022/01/30 09:59:10;;;;;;;6.90;3.40;;;22.30;32.80;;;;;;5119840;28;20510;-43
2022/01/30 10:01:37;;;;;;;7.33;3.33;;;20.70;33.60;;;;;;5119540;28;20262;-44
2022/01/30 10:04:04;;;;;;;8.43;4.07;;;19.10;34.90;;;;;;5118886;28;20592;-44
2022/01/30 10:06:37;;;;;;;8.47;3.67;;;17.90;36.30;;;;;;5100689;28;20550;-40
2022/01/30 10:09:20;;;;;;;9.17;4.20;;;17.00;37.30;;;;;;5117429;28;20832;-42
2022/01/30 10:11:59;;;;;;;7.57;3.57;;;16.30;38.30;;;;;;5116681;28;20460;-42
2022/01/30 10:14:25;;;;;;;6.30;3.23;;;15.90;38.90;;;;;;5117255;28;20417;-42
2022/01/30 10:16:50;;;;;;;7.90;3.70;;;17.10;40.80;;;;;;5117026;28;20410;-43
2022/01/30 10:19:21;;;;;;;7.93;3.60;;;18.40;38.90;;;;;;5099277;28;20174;-39
2022/01/30 10:21:48;;;;;;;7.33;4.50;;;18.70;37.50;;;;;;5099618;28;20435;-42
2022/01/30 10:24:27;;;;;;;12.40;4.53;;;18.90;37.80;;;;;;5117219;28;20480;-41
2022/01/30 10:26:56;;;;;;;7.70;3.83;;;19.00;37.10;;;;;;5118359;28;20494;-42
2022/01/30 10:29:30;;;;;;;10.83;4.73;;;18.80;36.80;;;;;;5118394;28;20566;-42
2022/01/30 10:32:01;;;;;;;8.90;3.30;;;18.20;36.90;;;;;;5118450;28;20520;-41
2022/01/30 10:34:27;;;;;;;9.50;4.10;;;17.40;37.70;;;;;;5117797;28;20409;-42
2022/01/30 10:37:12;;;;;;;11.30;5.07;;;17.00;38.40;;;;;;5118122;28;20432;-42
2022/01/30 10:40:04;;;;;;;10.93;5.20;;;16.30;39.10;;;;;;5117011;28;20188;-42
2022/01/30 10:42:50;;;;;;;6.67;3.73;;;15.90;39.40;;;;;;5116711;28;20493;-44
2022/01/30 10:45:18;;;;;;;7.60;3.70;;;15.90;40.10;;;;;;5113791;28;20459;-43
2022/01/30 10:47:45;;;;;;;5.40;3.20;;;16.70;40.40;;;;;;5115185;28;20549;-43
2022/01/30 10:50:19;;;;;;;9.90;3.13;;;17.00;39.40;;;;;;5115583;28;20576;-43
2022/01/30 10:53:03;;;;;;;10.20;3.97;;;17.30;38.80;;;;;;5115253;28;20428;-45
2022/01/30 10:55:43;;;;;;;8.67;3.40;;;17.80;39.00;;;;;;5115774;28;20463;-43
2022/01/30 10:58:13;;;;;;;7.10;2.30;;;17.90;38.20;;;;;;5117008;28;20812;-42
2022/01/30 11:00:45;;;;;;;7.93;3.80;;;17.70;38.00;;;;;;5118821;28;20423;-46
2022/01/30 11:03:35;;;;;;;7.00;3.20;;;17.20;39.00;;;;;;5118650;28;20421;-43
2022/01/30 11:06:00;;;;;;;4.93;2.03;;;16.50;39.10;;;;;;5116313;28;20562;-42
2022/01/30 11:08:32;;;;;;;3.37;1.93;;;16.40;46.30;;;;;;5116569;28;20888;-42
2022/01/30 11:10:59;;;;;;;4.13;2.03;;;16.50;51.20;;;;;;5116563;28;20635;-41
2022/01/30 11:13:32;;;;;;;6.33;3.40;;;16.80;52.10;;;;;;5098476;28;20454;-41
2022/01/30 11:16:57;;;;;;;3.00;2.40;;;17.40;51.60;;;;;;5080907;28;20424;-43
2022/01/30 11:18:49;;;;;;;13.83;3.87;;;17.90;51.10;;;;;;5098294;28;20503;-40
2022/01/30 11:21:20;;;;;;;5.60;3.43;;;18.50;49.70;;;;;;5113238;28;20412;-43
2022/01/30 11:23:47;;;;;;;5.87;3.10;;;19.20;48.80;;;;;;5115232;28;20508;-42
2022/01/30 11:26:13;;;;;;;4.70;3.27;;;20.20;47.00;;;;;;5097753;28;20461;-42
2022/01/30 11:28:40;;;;;;;10.23;3.50;;;20.60;45.30;;;;;;5098650;28;20413;-44
2022/01/30 11:31:06;;;;;;;5.57;3.03;;;20.50;44.00;;;;;;5097590;28;20450;-41
2022/01/30 11:33:32;;;;;;;8.03;3.53;;;20.00;41.60;;;;;;5098876;28;20413;-41
2022/01/30 11:35:58;;;;;;;7.97;3.50;;;19.60;39.80;;;;;;5117470;28;20399;-42
2022/01/30 11:38:24;;;;;;;8.80;3.57;;;19.20;38.80;;;;;;5100186;28;20811;-42
2022/01/30 11:41:08;;;;;;;5.30;2.40;;;20.00;38.20;;;;;;5112334;28;20179;-42
2022/01/30 11:43:34;;;;;;;6.17;2.93;;;20.40;36.90;;;;;;5097362;28;20175;-41
2022/01/30 11:46:19;;;;;;;7.23;3.63;;;20.00;36.20;;;;;;5103727;28;20473;-40
2022/01/30 11:49:13;;;;;;;4.80;2.87;;;19.30;36.00;;;;;;5117940;28;20169;-42
2022/01/30 11:51:52;;;;;;;9.80;3.50;;;18.40;36.70;;;;;;5116766;28;20445;-42
2022/01/30 11:54:45;;;;;;;8.37;4.10;;;18.00;36.80;;;;;;5117538;28;20445;-41
2022/01/30 11:57:22;;;;;;;6.97;4.90;;;17.30;36.80;;;;;;5116991;28;20413;-40
2022/01/30 11:59:53;;;;;;;6.73;4.80;;;16.80;37.10;;;;;;5103851;28;20499;-40
2022/01/30 12:02:28;;;;;;;9.83;5.50;;;16.50;37.50;;;;;;5097069;28;20509;-41
2022/01/30 12:05:01;;;;;;;7.30;4.57;;;17.30;38.30;;;;;;5109190;28;20524;-41
2022/01/30 12:07:45;;;;;;;7.97;4.80;;;19.30;37.50;;;;;;5117027;28;20433;-39
2022/01/30 12:10:19;;;;;;;11.33;7.60;;;21.70;36.20;;;;;;5114690;28;20504;-41
2022/01/30 12:13:06;;;;;;;10.30;6.40;;;24.10;33.90;;;;;;5116755;28;20423;-41
2022/01/30 12:15:47;;;;;;;12.07;4.60;;;26.20;31.80;;;;;;5116342;28;20449;-42
2022/01/30 12:18:39;;;;;;;7.37;4.60;;;27.80;29.80;;;;;;5116887;28;20879;-46
2022/01/30 12:21:11;;;;;;;11.87;6.53;;;29.10;30.60;;;;;;5114813;28;20431;-41
2022/01/30 12:23:39;;;;;;;8.50;5.23;;;30.40;29.80;;;;;;5115779;28;20475;-43
2022/01/30 12:26:14;;;;;;;6.03;4.10;;;31.30;28.20;;;;;;5115424;28;20467;-43
2022/01/30 12:29:03;;;;;;;10.23;4.13;;;32.20;27.10;;;;;;5116009;28;20789;-41
2022/01/30 12:31:34;;;;;;;8.90;3.27;;;32.90;26.60;;;;;;5115823;28;20507;-41
2022/01/30 12:34:05;;;;;;;7.03;3.93;;;33.50;27.70;;;;;;5116321;28;20422;-42
2022/01/30 12:36:39;;;;;;;6.07;3.43;;;33.60;27.50;;;;;;5098816;28;20511;-43
2022/01/30 12:39:12;;;;;;;8.87;3.67;;;33.10;27.60;;;;;;5099209;28;20431;-44
2022/01/30 12:41:38;;;;;;;11.50;3.87;;;32.30;27.10;;;;;;5115883;28;20423;-44
2022/01/30 12:44:16;;;;;;;8.33;4.17;;;31.70;27.50;;;;;;5097000;28;20827;-41
2022/01/30 12:46:46;;;;;;;10.90;5.80;;;31.30;27.90;;;;;;5097336;28;20515;-44
2022/01/30 12:49:21;;;;;;;9.20;3.93;;;30.70;28.10;;;;;;5115079;28;20431;-46
2022/01/30 12:51:55;;;;;;;8.53;3.80;;;30.30;27.90;;;;;;5114932;28;20429;-44
2022/01/30 12:54:26;;;;;;;6.97;3.30;;;30.00;27.50;;;;;;5114555;28;20753;-43
2022/01/30 12:56:54;;;;;;;6.80;3.83;;;29.40;28.50;;;;;;5097761;28;20699;-44
2022/01/30 12:59:23;;;;;;;8.80;3.57;;;28.90;28.70;;;;;;5116435;28;20440;-47
2022/01/30 13:01:50;;;;;;;6.83;3.63;;;28.90;28.30;;;;;;5099121;28;20435;-43
2022/01/30 13:04:24;;;;;;;7.23;3.20;;;28.70;28.30;;;;;;5114802;28;20437;-43
2022/01/30 13:06:51;;;;;;;6.37;2.83;;;28.40;28.50;;;;;;5114376;28;20440;-43
2022/01/30 13:09:35;;;;;;;5.67;2.90;;;27.90;28.40;;;;;;5097847;28;20492;-43
2022/01/30 13:12:12;;;;;;;5.53;3.30;;;27.00;29.20;;;;;;5135142;27;20868;-44
2022/01/30 13:14:39;;;;;;;5.90;3.20;;;27.10;29.70;;;;;;5117874;28;20461;-42
2022/01/30 13:17:08;;;;;;;6.70;2.80;;;27.40;29.40;;;;;;5101104;28;20517;-43
2022/01/30 13:19:44;;;;;;;4.70;2.33;;;27.80;28.70;;;;;;5119912;28;20406;-44
2022/01/30 13:22:11;;;;;;;6.30;3.00;;;28.10;28.70;;;;;;5119562;28;20475;-43
2022/01/30 13:24:40;;;;;;;7.73;2.77;;;28.30;28.10;;;;;;5119581;28;20405;-45
2022/01/30 13:27:07;;;;;;;6.47;3.80;;;28.60;28.10;;;;;;5118904;28;20463;-45
2022/01/30 13:29:35;;;;;;;4.83;2.77;;;28.80;28.00;;;;;;5119475;28;20456;-46
2022/01/30 13:32:11;;;;;;;6.80;3.03;;;28.90;28.10;;;;;;5119025;28;20427;-45
2022/01/30 13:34:40;;;;;;;5.80;2.93;;;29.10;27.70;;;;;;5118788;28;20426;-43
2022/01/30 13:37:11;;;;;;;5.33;2.80;;;29.00;27.40;;;;;;5118565;28;20517;-43
2022/01/30 13:39:48;;;;;;;6.33;3.20;;;29.10;27.60;;;;;;5118495;28;20421;-45
2022/01/30 13:42:44;;;;;;;6.13;3.00;;;29.40;27.10;;;;;;5116387;28;20447;-45
2022/01/30 13:47:57;;;;;;;13.17;2.60;;;29.60;26.90;;;;;;5118026;28;20517;-46